sensor_id;sensor_type;location;lat;lon;timestamp;pressure;altitude;pressure_sealevel;temperature;humidity
62978;BME280;49073;42.352;23.808;2023-10-08T00:00:40;95041.38;;;14.28;44.43
62978;BME280;49073;42.352;23.808;2023-10-08T00:03:46;95052.50;;;14.34;44.09
62978;BME280;49073;42.352;23.808;2023-10-08T00:07:01;95039.91;;;14.38;44.04
62978;BME280;49073;42.352;23.808;2023-10-08T00:10:06;95045.66;;;14.36;44.75
62978;BME280;49073;42.352;23.808;2023-10-08T00:13:07;95043.66;;;14.30;45.49
62978;BME280;49073;42.352;23.808;2023-10-08T00:16:11;95038.94;;;14.16;45.54
62978;BME280;49073;42.352;23.808;2023-10-08T00:19:16;95031.63;;;14.13;44.63
62978;BME280;49073;42.352;23.808;2023-10-08T00:22:18;95027.56;;;14.26;44.38
62978;BME280;49073;42.352;23.808;2023-10-08T00:25:19;95039.25;;;14.48;43.50
62978;BME280;49073;42.352;23.808;2023-10-08T00:28:23;95037.78;;;14.54;43.17
62978;BME280;49073;42.352;23.808;2023-10-08T00:31:28;95043.56;;;14.57;43.31
62978;BME280;49073;42.352;23.808;2023-10-08T00:34:41;95036.25;;;14.57;42.76
62978;BME280;49073;42.352;23.808;2023-10-08T00:37:43;95035.13;;;14.58;43.17
62978;BME280;49073;42.352;23.808;2023-10-08T00:40:47;95027.00;;;14.51;43.45
62978;BME280;49073;42.352;23.808;2023-10-08T00:43:51;95030.81;;;14.46;43.50
62978;BME280;49073;42.352;23.808;2023-10-08T00:46:58;95034.25;;;14.47;43.40
62978;BME280;49073;42.352;23.808;2023-10-08T00:50:05;95037.69;;;14.44;43.42
62978;BME280;49073;42.352;23.808;2023-10-08T00:53:13;95030.31;;;14.37;43.16
62978;BME280;49073;42.352;23.808;2023-10-08T00:56:21;95026.81;;;14.29;43.72
62978;BME280;49073;42.352;23.808;2023-10-08T00:59:24;95028.38;;;14.34;43.88
62978;BME280;49073;42.352;23.808;2023-10-08T01:02:33;95021.06;;;14.27;44.27
62978;BME280;49073;42.352;23.808;2023-10-08T01:05:46;95022.44;;;14.14;44.36
62978;BME280;49073;42.352;23.808;2023-10-08T01:08:47;95028.06;;;14.01;45.24
62978;BME280;49073;42.352;23.808;2023-10-08T01:15:08;95012.22;;;13.85;46.15
62978;BME280;49073;42.352;23.808;2023-10-08T01:18:25;94998.22;;;13.65;46.91
62978;BME280;49073;42.352;23.808;2023-10-08T01:21:32;95003.09;;;13.59;45.89
62978;BME280;49073;42.352;23.808;2023-10-08T01:24:39;95001.78;;;13.80;46.19
62978;BME280;49073;42.352;23.808;2023-10-08T01:27:40;94994.22;;;13.86;45.23
62978;BME280;49073;42.352;23.808;2023-10-08T01:30:43;94989.78;;;14.01;44.80
62978;BME280;49073;42.352;23.808;2023-10-08T01:33:47;94988.28;;;14.03;44.84
62978;BME280;49073;42.352;23.808;2023-10-08T01:36:50;94993.69;;;14.07;44.95
62978;BME280;49073;42.352;23.808;2023-10-08T01:39:51;95000.53;;;14.04;45.39
62978;BME280;49073;42.352;23.808;2023-10-08T01:42:52;94994.03;;;14.05;45.17
62978;BME280;49073;42.352;23.808;2023-10-08T01:45:53;94994.38;;;14.00;46.34
62978;BME280;49073;42.352;23.808;2023-10-08T01:48:53;94990.13;;;13.61;47.04
62978;BME280;49073;42.352;23.808;2023-10-08T01:52:03;94986.53;;;13.23;46.92
62978;BME280;49073;42.352;23.808;2023-10-08T01:55:13;94987.47;;;13.34;46.93
62978;BME280;49073;42.352;23.808;2023-10-08T01:58:18;94980.09;;;13.55;46.33
62978;BME280;49073;42.352;23.808;2023-10-08T02:01:20;94990.66;;;13.74;45.94
62978;BME280;49073;42.352;23.808;2023-10-08T02:04:20;94982.09;;;13.95;45.10
62978;BME280;49073;42.352;23.808;2023-10-08T02:07:21;94988.31;;;14.07;45.66
62978;BME280;49073;42.352;23.808;2023-10-08T02:10:22;94993.44;;;14.23;44.68
62978;BME280;49073;42.352;23.808;2023-10-08T02:13:25;94989.69;;;14.31;44.64
62978;BME280;49073;42.352;23.808;2023-10-08T02:16:26;94989.31;;;14.33;44.99
62978;BME280;49073;42.352;23.808;2023-10-08T02:19:27;94989.72;;;14.35;44.65
62978;BME280;49073;42.352;23.808;2023-10-08T02:22:28;94995.97;;;14.46;44.40
62978;BME280;49073;42.352;23.808;2023-10-08T02:25:29;94994.44;;;14.49;44.14
62978;BME280;49073;42.352;23.808;2023-10-08T02:28:30;94990.94;;;14.45;44.78
62978;BME280;49073;42.352;23.808;2023-10-08T02:31:30;95000.88;;;14.40;44.95
62978;BME280;49073;42.352;23.808;2023-10-08T02:34:31;94999.34;;;14.43;44.43
62978;BME280;49073;42.352;23.808;2023-10-08T02:37:31;94997.16;;;14.52;44.35
62978;BME280;49073;42.352;23.808;2023-10-08T02:40:37;94992.88;;;14.44;44.86
62978;BME280;49073;42.352;23.808;2023-10-08T02:43:38;94984.34;;;14.35;44.77
62978;BME280;49073;42.352;23.808;2023-10-08T02:46:41;94985.88;;;14.36;44.78
62978;BME280;49073;42.352;23.808;2023-10-08T02:49:41;94986.28;;;14.34;44.32
62978;BME280;49073;42.352;23.808;2023-10-08T02:52:43;94986.69;;;14.36;44.55
62978;BME280;49073;42.352;23.808;2023-10-08T02:55:44;94986.22;;;14.27;44.90
62978;BME280;49073;42.352;23.808;2023-10-08T02:58:46;94986.16;;;14.20;44.90
62978;BME280;49073;42.352;23.808;2023-10-08T03:01:48;94989.13;;;14.11;45.26
62978;BME280;49073;42.352;23.808;2023-10-08T03:04:57;94989.88;;;14.11;45.43
62978;BME280;49073;42.352;23.808;2023-10-08T03:07:58;94979.50;;;14.06;45.41
62978;BME280;49073;42.352;23.808;2023-10-08T03:10:58;94980.34;;;14.14;44.95
62978;BME280;49073;42.352;23.808;2023-10-08T03:14:05;94981.13;;;14.15;45.10
62978;BME280;49073;42.352;23.808;2023-10-08T03:17:15;94974.59;;;14.12;44.97
62978;BME280;49073;42.352;23.808;2023-10-08T03:20:20;94975.03;;;14.18;45.03
62978;BME280;49073;42.352;23.808;2023-10-08T03:23:42;94974.19;;;14.14;45.08
62978;BME280;49073;42.352;23.808;2023-10-08T03:26:47;94982.28;;;14.17;44.51
62978;BME280;49073;42.352;23.808;2023-10-08T03:29:55;94982.66;;;14.16;44.95
62978;BME280;49073;42.352;23.808;2023-10-08T03:32:59;94969.97;;;14.09;44.81
62978;BME280;49073;42.352;23.808;2023-10-08T03:36:03;94975.44;;;14.23;44.44
62978;BME280;49073;42.352;23.808;2023-10-08T03:39:25;94988.84;;;14.23;44.02
62978;BME280;49073;42.352;23.808;2023-10-08T03:42:46;94992.66;;;14.22;44.11
62978;BME280;49073;42.352;23.808;2023-10-08T03:45:49;94980.75;;;14.16;44.25
62978;BME280;49073;42.352;23.808;2023-10-08T03:48:59;94987.28;;;14.19;43.26
62978;BME280;49073;42.352;23.808;2023-10-08T03:52:05;94978.91;;;14.24;42.80
62978;BME280;49073;42.352;23.808;2023-10-08T03:55:07;94983.53;;;14.27;43.40
62978;BME280;49073;42.352;23.808;2023-10-08T03:58:22;94983.50;;;14.23;43.75
62978;BME280;49073;42.352;23.808;2023-10-08T04:01:28;94973.16;;;14.25;43.63
62978;BME280;49073;42.352;23.808;2023-10-08T04:04:32;94978.91;;;14.24;43.33
62978;BME280;49073;42.352;23.808;2023-10-08T04:07:49;94973.22;;;14.29;43.89
62978;BME280;49073;42.352;23.808;2023-10-08T04:10:59;94964.38;;;14.25;43.14
62978;BME280;49073;42.352;23.808;2023-10-08T04:14:08;94976.28;;;14.31;43.12
62978;BME280;49073;42.352;23.808;2023-10-08T04:17:10;94983.53;;;14.27;43.73
62978;BME280;49073;42.352;23.808;2023-10-08T04:20:13;94977.78;;;14.25;43.67
62978;BME280;49073;42.352;23.808;2023-10-08T04:23:40;94979.25;;;14.22;43.25
62978;BME280;49073;42.352;23.808;2023-10-08T04:26:40;94973.91;;;14.22;42.87
62978;BME280;49073;42.352;23.808;2023-10-08T04:29:41;94970.44;;;14.18;42.82
62978;BME280;49073;42.352;23.808;2023-10-08T04:32:42;94969.66;;;14.18;42.06
62978;BME280;49073;42.352;23.808;2023-10-08T04:35:44;94980.38;;;14.18;42.05
62978;BME280;49073;42.352;23.808;2023-10-08T04:39:01;94972.38;;;14.21;42.02
62978;BME280;49073;42.352;23.808;2023-10-08T04:42:13;94981.66;;;14.31;41.48
62978;BME280;49073;42.352;23.808;2023-10-08T04:45:14;94973.28;;;14.40;41.20
62978;BME280;49073;42.352;23.808;2023-10-08T04:48:16;94980.22;;;14.45;40.56
62978;BME280;49073;42.352;23.808;2023-10-08T04:51:20;94969.09;;;14.43;40.15
62978;BME280;49073;42.352;23.808;2023-10-08T04:54:26;94965.69;;;14.46;40.24
62978;BME280;49073;42.352;23.808;2023-10-08T04:57:30;94974.53;;;14.50;40.29
62978;BME280;49073;42.352;23.808;2023-10-08T05:00:31;94980.28;;;14.52;39.99
62978;BME280;49073;42.352;23.808;2023-10-08T05:03:55;94974.22;;;14.59;40.23
62978;BME280;49073;42.352;23.808;2023-10-08T05:06:59;94964.28;;;14.66;39.68
62978;BME280;49073;42.352;23.808;2023-10-08T05:10:17;94951.75;;;14.74;39.09
62978;BME280;49073;42.352;23.808;2023-10-08T05:13:23;94962.50;;;14.78;39.00
62978;BME280;49073;42.352;23.808;2023-10-08T05:16:33;94957.56;;;14.83;38.97
62978;BME280;49073;42.352;23.808;2023-10-08T05:19:44;94955.31;;;14.93;38.62
62978;BME280;49073;42.352;23.808;2023-10-08T05:23:18;94953.84;;;15.03;38.20
62978;BME280;49073;42.352;23.808;2023-10-08T05:26:25;94946.97;;;15.09;37.91
62978;BME280;49073;42.352;23.808;2023-10-08T05:29:41;94953.56;;;15.26;37.33
62978;BME280;49073;42.352;23.808;2023-10-08T05:33:14;94958.63;;;15.38;36.99
62978;BME280;49073;42.352;23.808;2023-10-08T05:36:17;94957.88;;;15.49;36.61
62978;BME280;49073;42.352;23.808;2023-10-08T05:39:28;94958.31;;;15.62;36.58
62978;BME280;49073;42.352;23.808;2023-10-08T05:42:55;94945.31;;;15.78;35.57
62978;BME280;49073;42.352;23.808;2023-10-08T05:46:01;94959.19;;;15.91;35.43
62978;BME280;49073;42.352;23.808;2023-10-08T05:49:23;94947.72;;;16.05;35.04
62978;BME280;49073;42.352;23.808;2023-10-08T05:52:38;94955.03;;;16.23;34.05
62978;BME280;49073;42.352;23.808;2023-10-08T05:55:51;94948.13;;;16.29;34.97
62978;BME280;49073;42.352;23.808;2023-10-08T05:59:01;94956.19;;;16.36;34.37
62978;BME280;49073;42.352;23.808;2023-10-08T06:02:15;94956.59;;;16.60;33.71
62978;BME280;49073;42.352;23.808;2023-10-08T06:05:36;94948.13;;;16.72;34.15
62978;BME280;49073;42.352;23.808;2023-10-08T06:08:43;94946.94;;;16.77;33.73
62978;BME280;49073;42.352;23.808;2023-10-08T06:12:06;94950.41;;;16.99;33.16
62978;BME280;49073;42.352;23.808;2023-10-08T06:15:10;94945.78;;;17.11;32.67
62978;BME280;49073;42.352;23.808;2023-10-08T06:18:19;94951.09;;;17.29;32.84
62978;BME280;49073;42.352;23.808;2023-10-08T06:21:20;94945.69;;;17.40;32.56
62978;BME280;49073;42.352;23.808;2023-10-08T06:24:21;94941.78;;;17.52;32.23
62978;BME280;49073;42.352;23.808;2023-10-08T06:27:21;94937.16;;;17.56;31.81
62978;BME280;49073;42.352;23.808;2023-10-08T06:30:25;94947.47;;;17.68;32.26
62978;BME280;49073;42.352;23.808;2023-10-08T06:33:34;94941.31;;;17.75;32.03
62978;BME280;49073;42.352;23.808;2023-10-08T06:36:35;94943.13;;;17.89;31.85
62978;BME280;49073;42.352;23.808;2023-10-08T06:39:35;94939.25;;;17.97;32.16
62978;BME280;49073;42.352;23.808;2023-10-08T06:42:48;94947.66;;;18.10;32.05
62978;BME280;49073;42.352;23.808;2023-10-08T06:45:52;94945.28;;;18.20;31.89
62978;BME280;49073;42.352;23.808;2023-10-08T06:48:52;94949.88;;;18.23;31.61
62978;BME280;49073;42.352;23.808;2023-10-08T06:51:54;94951.34;;;18.35;31.39
62978;BME280;49073;42.352;23.808;2023-10-08T06:54:55;94952.47;;;18.41;32.07
62978;BME280;49073;42.352;23.808;2023-10-08T06:57:55;94959.00;;;18.43;31.79
62978;BME280;49073;42.352;23.808;2023-10-08T07:00:56;94963.91;;;18.56;31.83
62978;BME280;49073;42.352;23.808;2023-10-08T07:03:58;94960.03;;;18.60;31.50
62978;BME280;49073;42.352;23.808;2023-10-08T07:07:06;94969.56;;;18.72;31.76
62978;BME280;49073;42.352;23.808;2023-10-08T07:10:09;94967.22;;;18.78;31.86
62978;BME280;49073;42.352;23.808;2023-10-08T07:13:11;94974.84;;;18.87;32.09
62978;BME280;49073;42.352;23.808;2023-10-08T07:16:11;94956.63;;;18.98;31.93
62978;BME280;49073;42.352;23.808;2023-10-08T07:19:12;94963.88;;;19.05;31.21
62978;BME280;49073;42.352;23.808;2023-10-08T07:22:24;94968.38;;;19.23;32.21
62978;BME280;49073;42.352;23.808;2023-10-08T07:25:28;94964.34;;;19.34;32.04
62978;BME280;49073;42.352;23.808;2023-10-08T07:28:35;94956.03;;;19.53;31.26
62978;BME280;49073;42.352;23.808;2023-10-08T07:31:37;94966.31;;;19.65;31.94
62978;BME280;49073;42.352;23.808;2023-10-08T07:34:41;94956.16;;;19.76;31.09
62978;BME280;49073;42.352;23.808;2023-10-08T07:37:44;94958.88;;;19.76;31.37
62978;BME280;49073;42.352;23.808;2023-10-08T07:40:45;94960.97;;;19.92;31.28
62978;BME280;49073;42.352;23.808;2023-10-08T07:43:49;94952.50;;;19.90;31.33
62978;BME280;49073;42.352;23.808;2023-10-08T07:46:59;94952.38;;;20.01;30.77
62978;BME280;49073;42.352;23.808;2023-10-08T07:50:00;94958.91;;;20.04;31.17
62978;BME280;49073;42.352;23.808;2023-10-08T07:53:00;94960.44;;;20.05;30.32
62978;BME280;49073;42.352;23.808;2023-10-08T07:56:05;94951.00;;;20.17;31.98
62978;BME280;49073;42.352;23.808;2023-10-08T07:59:08;94947.56;;;20.40;31.29
62978;BME280;49073;42.352;23.808;2023-10-08T08:02:09;94955.03;;;20.56;31.14
62978;BME280;49073;42.352;23.808;2023-10-08T08:05:12;94943.03;;;20.57;30.79
62978;BME280;49073;42.352;23.808;2023-10-08T08:08:17;94941.97;;;20.51;30.71
62978;BME280;49073;42.352;23.808;2023-10-08T08:11:18;94940.63;;;20.63;30.15
62978;BME280;49073;42.352;23.808;2023-10-08T08:14:19;94936.31;;;20.66;30.43
62978;BME280;49073;42.352;23.808;2023-10-08T08:17:25;94928.06;;;20.73;30.39
62978;BME280;49073;42.352;23.808;2023-10-08T08:20:25;94926.97;;;20.94;30.97
62978;BME280;49073;42.352;23.808;2023-10-08T08:23:38;94919.22;;;21.16;31.19
62978;BME280;49073;42.352;23.808;2023-10-08T08:26:39;94913.78;;;21.16;29.71
62978;BME280;49073;42.352;23.808;2023-10-08T08:29:44;94911.38;;;21.22;30.82
62978;BME280;49073;42.352;23.808;2023-10-08T08:32:45;94908.97;;;21.44;30.50
62978;BME280;49073;42.352;23.808;2023-10-08T08:36:00;94924.28;;;21.55;30.35
62978;BME280;49073;42.352;23.808;2023-10-08T08:39:01;94904.69;;;21.47;31.08
62978;BME280;49073;42.352;23.808;2023-10-08T08:42:04;94895.16;;;21.59;30.69
62978;BME280;49073;42.352;23.808;2023-10-08T08:45:09;94898.66;;;21.76;30.18
62978;BME280;49073;42.352;23.808;2023-10-08T08:48:12;94889.44;;;21.90;29.79
62978;BME280;49073;42.352;23.808;2023-10-08T08:51:14;94884.38;;;21.92;30.21
62978;BME280;49073;42.352;23.808;2023-10-08T08:54:15;94874.19;;;21.96;30.40
62978;BME280;49073;42.352;23.808;2023-10-08T08:57:17;94881.66;;;22.08;29.84
62978;BME280;49073;42.352;23.808;2023-10-08T09:00:19;94864.91;;;22.14;30.26
62978;BME280;49073;42.352;23.808;2023-10-08T09:03:21;94865.75;;;22.11;30.50
62978;BME280;49073;42.352;23.808;2023-10-08T09:06:39;94864.78;;;22.34;30.39
62978;BME280;49073;42.352;23.808;2023-10-08T09:09:39;94860.97;;;22.48;29.84
62978;BME280;49073;42.352;23.808;2023-10-08T09:12:40;94860.53;;;22.66;30.70
62978;BME280;49073;42.352;23.808;2023-10-08T09:15:42;94869.69;;;22.72;29.62
62978;BME280;49073;42.352;23.808;2023-10-08T09:18:50;94871.53;;;22.75;29.51
62978;BME280;49073;42.352;23.808;2023-10-08T09:22:07;94864.91;;;22.76;29.22
62978;BME280;49073;42.352;23.808;2023-10-08T09:25:08;94870.34;;;23.06;29.30
62978;BME280;49073;42.352;23.808;2023-10-08T09:28:10;94854.63;;;23.14;28.74
62978;BME280;49073;42.352;23.808;2023-10-08T09:31:13;94863.59;;;23.27;29.11
62978;BME280;49073;42.352;23.808;2023-10-08T09:34:16;94860.88;;;23.27;28.12
62978;BME280;49073;42.352;23.808;2023-10-08T09:37:17;94861.19;;;23.29;28.31
62978;BME280;49073;42.352;23.808;2023-10-08T09:40:21;94847.72;;;23.38;28.04
62978;BME280;49073;42.352;23.808;2023-10-08T09:43:23;94864.28;;;23.44;27.90
62978;BME280;49073;42.352;23.808;2023-10-08T09:46:34;94858.63;;;23.64;28.76
62978;BME280;49073;42.352;23.808;2023-10-08T09:49:40;94848.97;;;23.63;28.24
62978;BME280;49073;42.352;23.808;2023-10-08T09:52:55;94849.81;;;23.86;28.16
62978;BME280;49073;42.352;23.808;2023-10-08T09:55:57;94855.69;;;23.97;28.56
62978;BME280;49073;42.352;23.808;2023-10-08T09:58:58;94847.22;;;24.08;28.08
62978;BME280;49073;42.352;23.808;2023-10-08T10:02:00;94853.09;;;24.07;27.88
62978;BME280;49073;42.352;23.808;2023-10-08T10:05:03;94840.56;;;23.96;28.05
62978;BME280;49073;42.352;23.808;2023-10-08T10:08:08;94833.38;;;23.77;27.92
62978;BME280;49073;42.352;23.808;2023-10-08T10:11:11;94839.13;;;23.53;27.84
62978;BME280;49073;42.352;23.808;2023-10-08T10:14:12;94841.13;;;23.65;28.64
62978;BME280;49073;42.352;23.808;2023-10-08T10:20:17;94836.22;;;23.99;28.35
62978;BME280;49073;42.352;23.808;2023-10-08T10:26:40;94828.56;;;24.20;28.01
62978;BME280;49073;42.352;23.808;2023-10-08T10:29:42;94822.06;;;24.52;28.02
62978;BME280;49073;42.352;23.808;2023-10-08T10:32:47;94805.63;;;24.43;27.47
62978;BME280;49073;42.352;23.808;2023-10-08T10:35:51;94813.44;;;24.54;27.73
62978;BME280;49073;42.352;23.808;2023-10-08T10:38:51;94819.59;;;24.67;27.83
62978;BME280;49073;42.352;23.808;2023-10-08T10:41:55;94804.16;;;24.64;27.33
62978;BME280;49073;42.352;23.808;2023-10-08T10:45:01;94816.34;;;24.60;27.83
62978;BME280;49073;42.352;23.808;2023-10-08T10:48:23;94802.97;;;24.52;28.11
62978;BME280;49073;42.352;23.808;2023-10-08T10:51:25;94795.44;;;24.57;27.02
62978;BME280;49073;42.352;23.808;2023-10-08T10:54:26;94797.22;;;24.73;27.66
62978;BME280;49073;42.352;23.808;2023-10-08T10:57:39;94794.22;;;24.93;28.37
62978;BME280;49073;42.352;23.808;2023-10-08T11:00:42;94802.97;;;24.88;27.35
62978;BME280;49073;42.352;23.808;2023-10-08T11:03:43;94783.59;;;24.73;27.21
62978;BME280;49073;42.352;23.808;2023-10-08T11:06:46;94784.63;;;24.88;27.41
62978;BME280;49073;42.352;23.808;2023-10-08T11:09:47;94786.63;;;24.88;27.49
62978;BME280;49073;42.352;23.808;2023-10-08T11:12:48;94783.88;;;25.10;27.54
62978;BME280;49073;42.352;23.808;2023-10-08T11:15:54;94775.72;;;24.88;27.46
62978;BME280;49073;42.352;23.808;2023-10-08T11:18:55;94760.00;;;24.92;27.28
62978;BME280;49073;42.352;23.808;2023-10-08T11:22:01;94757.84;;;24.87;27.70
62978;BME280;49073;42.352;23.808;2023-10-08T11:25:01;94766.38;;;24.98;28.22
62978;BME280;49073;42.352;23.808;2023-10-08T11:28:06;94754.88;;;25.35;28.45
62978;BME280;49073;42.352;23.808;2023-10-08T11:31:13;94756.34;;;25.17;27.99
62978;BME280;49073;42.352;23.808;2023-10-08T11:34:14;94747.56;;;24.91;28.61
62978;BME280;49073;42.352;23.808;2023-10-08T11:37:25;94757.69;;;24.68;28.81
62978;BME280;49073;42.352;23.808;2023-10-08T11:40:27;94749.38;;;24.72;29.06
62978;BME280;49073;42.352;23.808;2023-10-08T11:43:52;94753.75;;;24.91;29.15
62978;BME280;49073;42.352;23.808;2023-10-08T11:46:59;94751.59;;;25.08;29.32
62978;BME280;49073;42.352;23.808;2023-10-08T11:50:11;94743.91;;;25.16;29.31
62978;BME280;49073;42.352;23.808;2023-10-08T11:53:19;94737.59;;;25.28;29.06
62978;BME280;49073;42.352;23.808;2023-10-08T11:56:19;94744.16;;;25.40;29.69
62978;BME280;49073;42.352;23.808;2023-10-08T11:59:23;94732.00;;;25.32;29.02
62978;BME280;49073;42.352;23.808;2023-10-08T12:02:26;94734.22;;;25.15;29.50
62978;BME280;49073;42.352;23.808;2023-10-08T12:05:27;94725.50;;;24.98;29.60
62978;BME280;49073;42.352;23.808;2023-10-08T12:08:29;94712.88;;;25.23;29.29
62978;BME280;49073;42.352;23.808;2023-10-08T12:11:30;94711.81;;;25.61;27.82
62978;BME280;49073;42.352;23.808;2023-10-08T12:14:33;94715.19;;;25.84;28.03
62978;BME280;49073;42.352;23.808;2023-10-08T12:17:34;94718.16;;;25.58;27.07
62978;BME280;49073;42.352;23.808;2023-10-08T12:20:41;94712.91;;;25.73;27.49
62978;BME280;49073;42.352;23.808;2023-10-08T12:23:47;94704.13;;;25.78;26.97
62978;BME280;49073;42.352;23.808;2023-10-08T12:26:49;94706.66;;;25.73;27.31
62978;BME280;49073;42.352;23.808;2023-10-08T12:29:50;94723.38;;;25.84;28.17
62978;BME280;49073;42.352;23.808;2023-10-08T12:32:51;94697.38;;;25.61;27.84
62978;BME280;49073;42.352;23.808;2023-10-08T12:35:52;94708.91;;;25.55;28.07
62978;BME280;49073;42.352;23.808;2023-10-08T12:38:56;94694.78;;;25.07;29.07
62978;BME280;49073;42.352;23.808;2023-10-08T12:41:59;94710.88;;;24.82;29.47
62978;BME280;49073;42.352;23.808;2023-10-08T12:45:05;94704.84;;;24.65;30.36
62978;BME280;49073;42.352;23.808;2023-10-08T12:48:12;94709.34;;;24.59;30.84
62978;BME280;49073;42.352;23.808;2023-10-08T12:51:14;94707.81;;;24.36;30.36
62978;BME280;49073;42.352;23.808;2023-10-08T12:54:15;94706.00;;;24.33;31.41
62978;BME280;49073;42.352;23.808;2023-10-08T12:57:22;94705.09;;;24.36;31.58
62978;BME280;49073;42.352;23.808;2023-10-08T13:00:29;94713.63;;;24.25;30.85
62978;BME280;49073;42.352;23.808;2023-10-08T13:03:31;94713.56;;;24.16;31.53
62978;BME280;49073;42.352;23.808;2023-10-08T13:06:34;94716.72;;;24.14;31.60
62978;BME280;49073;42.352;23.808;2023-10-08T13:09:37;94712.06;;;24.15;31.57
62978;BME280;49073;42.352;23.808;2023-10-08T13:12:38;94707.19;;;23.96;31.43
62978;BME280;49073;42.352;23.808;2023-10-08T13:15:39;94725.81;;;23.85;32.03
62978;BME280;49073;42.352;23.808;2023-10-08T13:18:41;94718.25;;;23.67;32.39
62978;BME280;49073;42.352;23.808;2023-10-08T13:21:43;94715.09;;;23.68;32.21
62978;BME280;49073;42.352;23.808;2023-10-08T13:24:44;94713.13;;;23.56;32.41
62978;BME280;49073;42.352;23.808;2023-10-08T13:27:45;94719.25;;;23.47;33.09
62978;BME280;49073;42.352;23.808;2023-10-08T13:30:51;94720.56;;;23.56;32.49
62978;BME280;49073;42.352;23.808;2023-10-08T13:33:52;94718.31;;;23.76;32.40
62978;BME280;49073;42.352;23.808;2023-10-08T13:36:56;94711.91;;;23.70;32.00
62978;BME280;49073;42.352;23.808;2023-10-08T13:39:57;94712.28;;;23.59;32.93
62978;BME280;49073;42.352;23.808;2023-10-08T13:42:57;94717.41;;;23.57;33.23
62978;BME280;49073;42.352;23.808;2023-10-08T13:46:06;94714.78;;;23.41;32.68
62978;BME280;49073;42.352;23.808;2023-10-08T13:49:07;94701.72;;;23.22;33.20
62978;BME280;49073;42.352;23.808;2023-10-08T13:52:09;94705.53;;;22.99;33.15
62978;BME280;49073;42.352;23.808;2023-10-08T13:55:10;94705.72;;;22.92;33.67
62978;BME280;49073;42.352;23.808;2023-10-08T13:58:14;94710.41;;;22.91;33.81
62978;BME280;49073;42.352;23.808;2023-10-08T14:01:14;94708.66;;;22.85;33.58
62978;BME280;49073;42.352;23.808;2023-10-08T14:04:21;94705.94;;;22.85;34.27
62978;BME280;49073;42.352;23.808;2023-10-08T14:07:26;94695.59;;;22.79;33.25
62978;BME280;49073;42.352;23.808;2023-10-08T14:10:27;94699.19;;;22.76;33.50
62978;BME280;49073;42.352;23.808;2023-10-08T14:13:30;94701.91;;;22.76;34.25
62978;BME280;49073;42.352;23.808;2023-10-08T14:16:33;94710.38;;;22.78;33.84
62978;BME280;49073;42.352;23.808;2023-10-08T14:19:38;94711.38;;;22.72;33.60
62978;BME280;49073;42.352;23.808;2023-10-08T14:22:47;94709.53;;;22.69;33.73
62978;BME280;49073;42.352;23.808;2023-10-08T14:25:52;94709.84;;;22.84;33.10
62978;BME280;49073;42.352;23.808;2023-10-08T14:28:55;94713.56;;;22.90;33.93
62978;BME280;49073;42.352;23.808;2023-10-08T14:31:59;94708.13;;;22.90;32.73
62978;BME280;49073;42.352;23.808;2023-10-08T14:34:59;94707.69;;;22.91;33.50
62978;BME280;49073;42.352;23.808;2023-10-08T14:38:18;94708.88;;;22.90;33.28
62978;BME280;49073;42.352;23.808;2023-10-08T14:41:38;94707.34;;;22.76;33.67
62978;BME280;49073;42.352;23.808;2023-10-08T14:44:57;94717.09;;;22.61;33.82
62978;BME280;49073;42.352;23.808;2023-10-08T14:47:58;94713.25;;;22.45;34.11
62978;BME280;49073;42.352;23.808;2023-10-08T14:50:58;94719.28;;;22.36;33.87
62978;BME280;49073;42.352;23.808;2023-10-08T14:53:59;94715.78;;;22.36;34.37
62978;BME280;49073;42.352;23.808;2023-10-08T14:57:01;94718.50;;;22.36;34.22
62978;BME280;49073;42.352;23.808;2023-10-08T15:00:03;94727.41;;;22.36;33.97
62978;BME280;49073;42.352;23.808;2023-10-08T15:03:05;94724.66;;;22.23;33.98
62978;BME280;49073;42.352;23.808;2023-10-08T15:06:07;94730.19;;;22.20;34.11
62978;BME280;49073;42.352;23.808;2023-10-08T15:09:07;94730.94;;;22.20;34.13
62978;BME280;49073;42.352;23.808;2023-10-08T15:12:09;94735.88;;;22.09;34.43
62978;BME280;49073;42.352;23.808;2023-10-08T15:15:10;94733.59;;;22.07;33.96
62978;BME280;49073;42.352;23.808;2023-10-08T15:18:13;94739.00;;;22.07;34.47
62978;BME280;49073;42.352;23.808;2023-10-08T15:21:14;94744.28;;;21.98;34.51
62978;BME280;49073;42.352;23.808;2023-10-08T15:24:21;94744.72;;;21.97;33.91
62978;BME280;49073;42.352;23.808;2023-10-08T15:27:22;94749.16;;;21.90;33.87
62978;BME280;49073;42.352;23.808;2023-10-08T15:30:23;94754.13;;;21.92;34.30
62978;BME280;49073;42.352;23.808;2023-10-08T15:33:26;94760.00;;;21.90;34.14
62978;BME280;49073;42.352;23.808;2023-10-08T15:36:26;94755.25;;;21.78;34.18
62978;BME280;49073;42.352;23.808;2023-10-08T15:39:27;94762.53;;;21.64;34.52
62978;BME280;49073;42.352;23.808;2023-10-08T15:42:28;94764.31;;;21.71;34.25
62978;BME280;49073;42.352;23.808;2023-10-08T15:45:30;94755.31;;;21.58;34.51
62978;BME280;49073;42.352;23.808;2023-10-08T15:48:31;94758.88;;;21.55;34.55
62978;BME280;49073;42.352;23.808;2023-10-08T15:51:35;94768.44;;;21.43;35.08
62978;BME280;49073;42.352;23.808;2023-10-08T15:54:35;94764.19;;;21.42;34.75
62978;BME280;49073;42.352;23.808;2023-10-08T15:57:39;94778.75;;;21.31;34.89
62978;BME280;49073;42.352;23.808;2023-10-08T16:00:40;94773.50;;;21.24;35.08
62978;BME280;49073;42.352;23.808;2023-10-08T16:03:41;94769.38;;;21.16;35.40
62978;BME280;49073;42.352;23.808;2023-10-08T16:06:41;94781.50;;;21.11;35.37
62978;BME280;49073;42.352;23.808;2023-10-08T16:09:42;94796.22;;;21.10;35.31
62978;BME280;49073;42.352;23.808;2023-10-08T16:12:42;94793.59;;;21.06;35.70
62978;BME280;49073;42.352;23.808;2023-10-08T16:15:43;94788.25;;;21.03;35.96